createdAt,value
2018-10-09T00:01:03.861Z,31.56
2018-10-09T00:02:13.959Z,31.85
2018-10-09T00:03:23.246Z,32.51
2018-10-09T00:04:33.338Z,32.51
2018-10-09T00:05:43.430Z,32.42
2018-10-09T00:06:52.989Z,31.76
2018-10-09T00:08:02.817Z,30.99
2018-10-09T00:09:11.980Z,32.32
2018-10-09T00:10:21.537Z,32.99
2018-10-09T00:11:31.088Z,32.99
2018-10-09T00:12:40.374Z,32.9
2018-10-09T00:13:49.925Z,32.99
2018-10-09T00:14:59.476Z,33.18
2018-10-09T00:16:08.503Z,33.56
2018-10-09T00:17:18.331Z,32.61
2018-10-09T00:18:27.616Z,32.99
2018-10-09T00:19:37.166Z,33.18
2018-10-09T00:20:46.988Z,31.56
2018-10-09T00:21:57.077Z,32.14
2018-10-09T00:23:06.639Z,32.32
2018-10-09T00:24:16.463Z,32.14
2018-10-09T00:25:26.018Z,32.23
2018-10-09T00:26:35.836Z,31.76
2018-10-09T00:27:45.393Z,30.62
2018-10-09T00:28:54.952Z,30.23
2018-10-09T00:30:04.798Z,30.71
2018-10-09T00:31:14.357Z,31.66
2018-10-09T00:32:24.178Z,31.47
2018-10-09T00:33:34.053Z,31.76
2018-10-09T00:34:44.147Z,31.47
2018-10-09T00:35:53.971Z,30.8
2018-10-09T00:37:03.532Z,31.28
2018-10-09T00:38:13.621Z,30.52
2018-10-09T00:39:23.707Z,31.09
2018-10-09T00:40:33.266Z,31.37
2018-10-09T00:41:43.097Z,30.8
2018-10-09T00:42:52.644Z,31.09
2018-10-09T00:44:02.199Z,30.43
2018-10-09T00:45:11.486Z,30.8
2018-10-09T00:46:21.092Z,30.23
2018-10-09T00:47:31.201Z,29.57
2018-10-09T00:48:41.297Z,29
2018-10-09T00:49:51.394Z,28.33
2018-10-09T00:51:01.487Z,29.19
2018-10-09T00:52:11.037Z,29
2018-10-09T00:53:20.590Z,28.81
2018-10-09T00:54:30.414Z,28.71
2018-10-09T00:55:39.992Z,29
2018-10-09T00:56:49.548Z,28.81
2018-10-09T00:57:58.829Z,29
2018-10-09T00:59:08.651Z,28.42
2018-10-09T01:00:18.476Z,27.95
2018-10-09T01:01:28.300Z,28.14
2018-10-09T01:02:37.584Z,27.95
2018-10-09T01:03:47.682Z,28.33
2018-10-09T01:04:57.781Z,29.19
2018-10-09T01:06:07.613Z,29.28
2018-10-09T01:07:17.713Z,29.09
2018-10-09T01:08:27.264Z,29.57
2018-10-09T01:09:36.822Z,29.66
2018-10-09T01:10:46.940Z,28.81
2018-10-09T01:11:56.773Z,29.95
2018-10-09T01:13:06.325Z,30.33
2018-10-09T01:14:16.150Z,29.85
2018-10-09T01:15:25.489Z,29.19
2018-10-09T01:16:35.586Z,29
2018-10-09T01:17:45.676Z,29.66
2018-10-09T01:18:55.508Z,29.28
2018-10-09T01:20:05.113Z,29.66
2018-10-09T01:21:15.205Z,29.85
2018-10-09T01:22:24.488Z,29.38
2018-10-09T01:23:34.320Z,28.9
2018-10-09T01:24:44.144Z,29.57
2018-10-09T01:25:53.972Z,29.66
2018-10-09T01:27:03.817Z,29.75
2018-10-09T01:29:23.206Z,29.95
2018-10-09T01:30:32.485Z,29.85
2018-10-09T01:31:42.088Z,29.95
2018-10-09T01:32:52.182Z,30.04
2018-10-09T01:34:02.290Z,29.85
2018-10-09T01:35:11.859Z,29.95
2018-10-09T01:36:21.684Z,29.47
2018-10-09T01:37:31.250Z,29.66
2018-10-09T01:38:40.579Z,29.66
2018-10-09T01:39:50.130Z,30.43
2018-10-09T01:40:59.960Z,30.52
2018-10-09T01:42:09.794Z,30.62
2018-10-09T01:43:19.404Z,30.8
2018-10-09T01:44:28.963Z,30.71
2018-10-09T01:45:38.261Z,30.04
2018-10-09T01:46:47.813Z,30.33
2018-10-09T01:47:57.644Z,30.8
2018-10-09T01:49:07.200Z,31.85
2018-10-09T01:50:17.297Z,30.62
2018-10-09T01:51:27.389Z,29.85
2018-10-09T01:52:37.492Z,29.19
2018-10-09T01:53:47.579Z,28.9
2018-10-09T01:54:57.685Z,28.33
2018-10-09T01:56:07.511Z,28.71
2018-10-09T01:57:17.063Z,29.85
2018-10-09T01:58:26.888Z,28.9
2018-10-09T01:59:36.978Z,28.33
2018-10-09T02:00:46.526Z,29.19
2018-10-09T02:01:56.619Z,28.81
2018-10-09T02:03:06.715Z,28.33
2018-10-09T02:04:16.543Z,27.95
2018-10-09T02:05:26.643Z,27.76
2018-10-09T02:06:36.465Z,27.95
2018-10-09T02:07:46.285Z,28.33
2018-10-09T02:08:56.111Z,28.42
2018-10-09T02:10:05.934Z,28.14
2018-10-09T02:11:15.760Z,27.86
2018-10-09T02:12:25.581Z,27.95
2018-10-09T02:13:35.403Z,28.9
2018-10-09T02:14:44.955Z,29.57
2018-10-09T02:15:54.516Z,30.04
2018-10-09T02:17:04.610Z,29.66
2018-10-09T02:18:14.164Z,28.81
2018-10-09T02:19:24.265Z,27.95
2018-10-09T02:20:33.827Z,27.86
2018-10-09T02:21:43.919Z,27.95
2018-10-09T02:22:53.747Z,27.95
2018-10-09T02:24:03.302Z,27.76
2018-10-09T02:25:12.590Z,27.95
2018-10-09T02:26:21.882Z,27.57
2018-10-09T02:27:31.441Z,27.09
2018-10-09T02:28:40.998Z,27.19
2018-10-09T02:29:50.822Z,27.57
2018-10-09T02:31:00.915Z,27
2018-10-09T02:32:10.747Z,27.67
2018-10-09T02:33:20.033Z,27
2018-10-09T02:34:30.257Z,27.28
2018-10-09T02:35:40.105Z,27.09
2018-10-09T02:36:49.655Z,27.37
2018-10-09T02:37:59.754Z,27.09
2018-10-09T02:39:09.578Z,27.27
2018-10-09T02:40:18.864Z,27.94
2018-10-09T02:41:28.767Z,27.84
2018-10-09T02:42:38.600Z,27.37
2018-10-09T02:43:48.152Z,27.27
2018-10-09T02:44:57.441Z,27.08
2018-10-09T02:46:06.990Z,26.32
2018-10-09T02:47:16.811Z,26.89
2018-10-09T02:48:26.920Z,27.56
2018-10-09T02:49:36.765Z,28.03
2018-10-09T02:50:46.587Z,29.17
2018-10-09T02:51:56.411Z,27.94
2018-10-09T02:53:06.514Z,28.03
2018-10-09T02:54:16.614Z,29.17
2018-10-09T02:55:26.446Z,29.64
2018-10-09T02:56:36.541Z,28.7
2018-10-09T02:57:46.372Z,28.98
2018-10-09T02:58:56.471Z,28.98
2018-10-09T03:00:06.303Z,27.75
2018-10-09T03:01:16.135Z,28.89
2018-10-09T03:02:26.242Z,28.89
2018-10-09T03:03:36.074Z,28.03
2018-10-09T03:04:46.180Z,28.13
2018-10-09T03:05:56.280Z,27.94
2018-10-09T03:07:06.101Z,27.08
2018-10-09T03:08:15.928Z,26.42
2018-10-09T03:09:26.068Z,27.56
2018-10-09T03:10:35.897Z,26.42
2018-10-09T03:11:45.453Z,27.27
2018-10-09T03:12:55.017Z,27.65
2018-10-09T03:14:05.107Z,26.42
2018-10-09T03:15:14.933Z,26.04
2018-10-09T03:16:24.487Z,25.46
2018-10-09T03:17:34.042Z,25.46
2018-10-09T03:18:43.870Z,25.37
2018-10-09T03:19:53.700Z,24.99
2018-10-09T03:21:03.794Z,24.99
2018-10-09T03:22:13.401Z,24.61
2018-10-09T03:23:23.231Z,24.42
2018-10-09T03:24:32.515Z,24.13
2018-10-09T03:25:42.343Z,23.85
2018-10-09T03:26:51.895Z,23.94
2018-10-09T03:28:01.181Z,25.37
2018-10-09T03:29:10.732Z,25.46
2018-10-09T03:30:20.832Z,25.46
2018-10-09T03:31:30.131Z,25.46
2018-10-09T03:32:39.971Z,25.65
2018-10-09T03:33:49.528Z,26.23
2018-10-09T03:34:58.817Z,26.23
2018-10-09T03:36:08.106Z,26.42
2018-10-09T03:37:17.940Z,25.75
2018-10-09T03:38:27.764Z,26.23
2018-10-09T03:39:37.639Z,26.13
2018-10-09T03:40:47.460Z,25.56
2018-10-09T03:41:57.010Z,25.37
2018-10-09T03:43:06.828Z,25.18
2018-10-09T03:44:16.381Z,25.37
2018-10-09T03:45:26.479Z,25.27
2018-10-09T03:46:36.095Z,25.37
2018-10-09T03:47:46.183Z,26.61
2018-10-09T03:48:56.004Z,26.42
2018-10-09T03:50:05.557Z,25.46
2018-10-09T03:51:14.892Z,24.99
2018-10-09T03:52:24.725Z,25.37
2018-10-09T03:53:34.549Z,24.99
2018-10-09T03:54:44.103Z,24.61
2018-10-09T03:55:54.216Z,24.42
2018-10-09T03:57:03.768Z,24.61
2018-10-09T03:58:13.859Z,24.04
2018-10-09T03:59:23.415Z,24.99
2018-10-09T04:00:33.247Z,25.09
2018-10-09T04:01:43.081Z,24.9
2018-10-09T04:02:52.914Z,24.33
2018-10-09T04:04:03.002Z,24.04
2018-10-09T04:05:13.090Z,23.66
2018-10-09T04:06:22.908Z,23.38
2018-10-09T04:07:32.461Z,23.47
2018-10-09T04:08:42.291Z,23.19
2018-10-09T04:09:52.112Z,23.66
2018-10-09T04:11:02.201Z,24.13
2018-10-09T04:12:11.762Z,24.23
2018-10-09T04:13:21.602Z,23.28
2018-10-09T04:14:31.423Z,22.9
2018-10-09T04:15:41.244Z,22.71
2018-10-09T04:16:51.071Z,23.09
2018-10-09T04:18:00.903Z,22.8
2018-10-09T04:19:10.465Z,22.52
2018-10-09T04:20:20.070Z,22.14
2018-10-09T04:21:29.900Z,21.86
2018-10-09T04:22:39.186Z,21.57
2018-10-09T04:23:49.013Z,20.81
2018-10-09T04:24:59.112Z,20.53
2018-10-09T04:26:08.946Z,20.62
2018-10-09T04:27:18.504Z,20.62
2018-10-09T04:28:28.063Z,20.43
2018-10-09T04:29:38.090Z,20.24
2018-10-09T04:30:48.190Z,20.24
2018-10-09T04:31:58.285Z,20.24
2018-10-09T04:33:08.108Z,20.34
2018-10-09T04:34:17.936Z,20.14
2018-10-09T04:35:27.838Z,20.43
2018-10-09T04:36:38.161Z,21.09
2018-10-09T04:37:47.452Z,20.81
2018-10-09T04:38:57.049Z,20.81
2018-10-09T04:40:07.137Z,20.9
2018-10-09T04:41:17.237Z,21.28
2018-10-09T04:42:27.333Z,21.86
2018-10-09T04:43:36.904Z,21.57
2018-10-09T04:44:46.186Z,21.76
2018-10-09T04:45:56.013Z,21.19
2018-10-09T04:47:06.099Z,21.19
2018-10-09T04:48:16.199Z,21.19
2018-10-09T04:49:25.750Z,20.81
2018-10-09T04:50:35.844Z,21.47
2018-10-09T04:51:45.396Z,21.67
2018-10-09T04:52:55.318Z,21.67
2018-10-09T04:54:05.658Z,21.28
2018-10-09T04:55:15.216Z,21.28
2018-10-09T04:56:25.308Z,20.9
2018-10-09T04:57:34.867Z,21.28
2018-10-09T04:58:44.962Z,22.24
2018-10-09T04:59:55.056Z,22.71
2018-10-09T05:01:04.662Z,22.33
2018-10-09T05:02:14.217Z,21.57
2018-10-09T05:03:24.062Z,21.76
2018-10-09T05:04:33.624Z,21.28
2018-10-09T05:05:43.713Z,21.19
2018-10-09T05:06:52.997Z,22.05
2018-10-09T05:08:02.823Z,22.61
2018-10-09T05:09:12.380Z,22.9
2018-10-09T05:10:21.929Z,23.19
2018-10-09T05:11:31.479Z,23.85
2018-10-09T05:12:41.614Z,22.42
2018-10-09T05:13:50.900Z,22.03
2018-10-09T05:15:00.726Z,21.57
2018-10-09T05:16:10.550Z,21.09
2018-10-09T05:17:20.376Z,21
2018-10-09T05:18:29.931Z,21
2018-10-09T05:19:39.484Z,20.81
2018-10-09T05:20:49.043Z,21
2018-10-09T05:21:58.872Z,21.95
2018-10-09T05:23:08.769Z,21
2018-10-09T05:24:18.903Z,20.72
2018-10-09T05:25:28.465Z,21.28
2018-10-09T05:26:38.564Z,21
2018-10-09T05:27:48.384Z,21.57
2018-10-09T05:28:58.474Z,21.09
2018-10-09T05:30:08.029Z,20.62
2018-10-09T05:31:17.693Z,20.9
2018-10-09T05:32:28.601Z,21.19
2018-10-09T05:33:38.158Z,21.28
2018-10-09T05:34:47.715Z,22.05
2018-10-09T05:35:57.273Z,22.24
2018-10-09T05:37:06.825Z,22.33
2018-10-09T05:38:16.374Z,22.33
2018-10-09T05:39:26.200Z,21.67
2018-10-09T05:40:35.761Z,23.09
2018-10-09T05:41:45.099Z,22.33
2018-10-09T05:42:54.384Z,21.95
2018-10-09T05:44:04.248Z,21.47
2018-10-09T05:45:14.539Z,21.28
2018-10-09T05:46:24.638Z,21.09
2018-10-09T05:47:34.463Z,21
2018-10-09T05:48:44.282Z,21.19
2018-10-09T05:49:53.564Z,21.38
2018-10-09T05:51:03.649Z,21
2018-10-09T05:52:12.931Z,20.72
2018-10-09T05:53:22.756Z,21.09
2018-10-09T05:54:32.316Z,20.72
2018-10-09T05:55:42.145Z,21.19
2018-10-09T05:56:51.970Z,20.81
2018-10-09T05:58:01.716Z,21.28
2018-10-09T05:59:12.276Z,20.72
2018-10-09T06:00:22.369Z,20.43
2018-10-09T06:01:31.658Z,20.24
2018-10-09T06:02:41.488Z,20.24
2018-10-09T06:03:51.043Z,19.57
2018-10-09T06:05:01.183Z,19.86
2018-10-09T06:06:11.007Z,19.38
2018-10-09T06:07:20.558Z,20.14
2018-10-09T06:08:29.842Z,20.53
2018-10-09T06:09:39.989Z,20.34
2018-10-09T06:10:49.817Z,20.34
2018-10-09T06:11:59.651Z,20.62
2018-10-09T06:13:09.744Z,20.34
2018-10-09T06:14:19.568Z,20.14
2018-10-09T06:15:29.826Z,20.34
2018-10-09T06:16:40.342Z,20.14
2018-10-09T06:17:50.162Z,20.53
2018-10-09T06:18:59.983Z,20.05
2018-10-09T06:20:10.077Z,20.34
2018-10-09T06:21:20.175Z,20.24
2018-10-09T06:22:30.063Z,20.14
2018-10-09T06:23:39.625Z,20.43
2018-10-09T06:24:49.183Z,20.14
2018-10-09T06:25:58.738Z,20.62
2018-10-09T06:27:08.568Z,20.53
2018-10-09T06:28:18.548Z,20.43
2018-10-09T06:29:29.093Z,20.72
2018-10-09T06:30:39.195Z,20.9
2018-10-09T06:31:48.485Z,20.9
2018-10-09T06:32:58.044Z,20.81
2018-10-09T06:34:08.418Z,20.34
2018-10-09T06:35:17.338Z,20.34
2018-10-09T06:36:26.895Z,20.53
2018-10-09T06:37:36.445Z,21.01
2018-10-09T06:38:46.286Z,20.82
2018-10-09T06:39:56.145Z,21.58
2018-10-09T06:41:05.985Z,20.92
2018-10-09T06:42:16.103Z,22.25
2018-10-09T06:43:26.195Z,23.39
2018-10-09T06:44:35.752Z,24.05
2018-10-09T06:45:45.705Z,24.43
2018-10-09T06:46:55.261Z,24.24
2018-10-09T06:48:04.819Z,24.05
2018-10-09T06:49:14.666Z,24.34
2018-10-09T06:50:24.782Z,24.34
2018-10-09T06:51:34.394Z,25.48
2018-10-09T06:52:43.949Z,26.05
2018-10-09T06:53:54.652Z,27.19
2018-10-09T06:55:05.388Z,27.09
2018-10-09T06:56:14.410Z,27.19
2018-10-09T06:57:24.502Z,26.14
2018-10-09T06:58:34.596Z,26.43
2018-10-09T06:59:44.713Z,27.57
2018-10-09T07:00:54.544Z,27.09
2018-10-09T07:02:03.845Z,27.19
2018-10-09T07:03:13.416Z,27.19
2018-10-09T07:04:23.517Z,27
2018-10-09T07:05:33.087Z,27.67
2018-10-09T07:06:42.389Z,27.86
2018-10-09T07:07:52.505Z,28.71
2018-10-09T07:09:02.392Z,28.33
2018-10-09T07:10:12.236Z,28.33
2018-10-09T07:11:22.347Z,29.75
2018-10-09T07:12:32.278Z,29.66
2018-10-09T07:13:42.113Z,29.28
2018-10-09T07:14:52.248Z,28.52
2018-10-09T07:16:02.085Z,29.19
2018-10-09T07:17:11.181Z,29.19
2018-10-09T07:18:21.121Z,28.71
2018-10-09T07:19:31.229Z,28.52
2018-10-09T07:20:41.341Z,28.71
2018-10-09T07:21:50.922Z,28.14
2018-10-09T07:23:00.766Z,28.25
2018-10-09T07:24:10.608Z,27.97
2018-10-09T07:25:20.174Z,28.34
2018-10-09T07:26:30.294Z,28.92
2018-10-09T07:27:40.160Z,28.25
2018-10-09T07:28:50.145Z,28.92
2018-10-09T07:29:59.982Z,28.92
2018-10-09T07:31:09.822Z,28.72
2018-10-09T07:32:19.441Z,29.86
2018-10-09T07:33:29.007Z,29.58
2018-10-09T07:34:38.620Z,29.86
2018-10-09T07:35:48.461Z,30.54
2018-10-09T07:36:58.575Z,30.73
2018-10-09T07:38:08.688Z,30.34
2018-10-09T07:39:17.997Z,30.15
2018-10-09T07:40:28.109Z,30.91
2018-10-09T07:41:37.960Z,31.02
2018-10-09T07:42:47.525Z,31.5
2018-10-09T07:43:57.534Z,31.58
2018-10-09T07:45:08.242Z,31.98
2018-10-09T07:46:18.086Z,32.07
2018-10-09T07:47:28.216Z,32.35
2018-10-09T07:48:37.793Z,32.35
2018-10-09T07:49:47.365Z,32.45
2018-10-09T07:50:56.933Z,33.97
2018-10-09T07:52:06.765Z,33.5
2018-10-09T07:53:16.885Z,34.74
2018-10-09T07:54:26.738Z,35.31
2018-10-09T07:55:36.036Z,35.6
2018-10-09T07:56:45.340Z,35.97
2018-10-09T07:57:55.237Z,36.55
2018-10-09T07:59:04.536Z,35.5
2018-10-09T08:00:14.110Z,36.26
2018-10-09T08:01:24.230Z,36.76
2018-10-09T08:02:33.259Z,36.18
2018-10-09T08:03:42.561Z,36.08
2018-10-09T08:04:52.589Z,36.18
2018-10-09T08:06:02.583Z,36.57
2018-10-09T08:07:12.167Z,37.13
2018-10-09T08:08:22.004Z,37.23
2018-10-09T08:09:31.301Z,37.04
2018-10-09T08:10:40.985Z,37.23
2018-10-09T08:11:50.976Z,37.23
2018-10-09T08:13:00.823Z,37.13
2018-10-09T08:14:10.385Z,36.57
2018-10-09T08:15:20.218Z,36.57
2018-10-09T08:16:30.208Z,38.56
2018-10-09T08:17:40.112Z,39.06
2018-10-09T08:18:49.689Z,38.29
2018-10-09T08:19:59.536Z,38.87
2018-10-09T08:21:09.376Z,39.25
2018-10-09T08:22:19.754Z,39.15
2018-10-09T08:23:30.289Z,40.01
2018-10-09T08:24:39.855Z,40.58
2018-10-09T08:25:49.981Z,41.44
2018-10-09T08:26:59.822Z,41.35
2018-10-09T08:28:09.582Z,40.68
2018-10-09T08:29:18.658Z,41.63
2018-10-09T08:30:28.241Z,41.44
2018-10-09T08:31:38.356Z,41.72
2018-10-09T08:32:47.704Z,43.25
2018-10-09T08:33:57.001Z,42.58
2018-10-09T08:35:06.567Z,42.22
2018-10-09T08:36:16.424Z,41.46
2018-10-09T08:37:26.263Z,44.32
2018-10-09T08:38:35.713Z,44.23
2018-10-09T08:39:46.007Z,44.8
2018-10-09T08:40:55.847Z,44.42
2018-10-09T08:42:05.161Z,44.13
2018-10-09T08:43:14.553Z,44.8
2018-10-09T08:44:24.330Z,44.89
2018-10-09T08:45:33.712Z,44.92
2018-10-09T08:46:43.989Z,45.87
2018-10-09T08:47:53.895Z,46.15
2018-10-09T08:49:03.752Z,46.92
2018-10-09T08:50:13.876Z,48.25
2018-10-09T08:51:23.635Z,49.11
2018-10-09T08:52:33.475Z,49.02
2018-10-09T08:53:43.623Z,49.52
2018-10-09T08:54:53.746Z,50.47
2018-10-09T08:56:03.844Z,52
2018-10-09T08:57:13.579Z,50.67
2018-10-09T08:58:23.679Z,53.24
2018-10-09T08:59:33.547Z,52.86
2018-10-09T09:00:43.197Z,55.15
2018-10-09T09:01:53.428Z,56.87
2018-10-09T09:03:02.741Z,56.67
2018-10-09T09:04:12.354Z,58.39
2018-10-09T09:05:22.328Z,58.48
2018-10-09T09:06:31.874Z,59.28
2018-10-09T09:07:41.442Z,59.66
2018-10-09T09:08:51.654Z,60.9
2018-10-09T09:10:01.094Z,61
2018-10-09T09:11:10.807Z,61.57
2018-10-09T09:12:20.637Z,65.2
2018-10-09T09:13:30.500Z,63.76
2018-10-09T09:14:40.720Z,65.87
2018-10-09T09:15:51.529Z,66.06
2018-10-09T09:17:02.172Z,65.48
2018-10-09T09:18:12.340Z,66.44
2018-10-09T09:19:21.702Z,66.85
2018-10-09T09:20:31.487Z,67.05
2018-10-09T09:21:41.381Z,67.81
2018-10-09T09:22:51.383Z,67.01
2018-10-09T09:24:01.776Z,67.71
2018-10-09T09:25:11.135Z,69.72
2018-10-09T09:26:20.770Z,69.72
2018-10-09T09:27:30.672Z,70.2
2018-10-09T09:28:40.571Z,69.82
2018-10-09T09:29:50.410Z,70.48
2018-10-09T09:31:00.298Z,71.63
2018-10-09T09:32:10.421Z,71.53
2018-10-09T09:33:20.892Z,72.3
2018-10-09T09:34:30.543Z,72.78
2018-10-09T09:35:40.117Z,72.58
2018-10-09T09:36:50.099Z,72.2
2018-10-09T09:38:00.335Z,72.49
2018-10-09T09:39:10.660Z,72.39
2018-10-09T09:40:20.122Z,74.4
2018-10-09T09:41:29.963Z,72.97
2018-10-09T09:42:40.077Z,73.83
2018-10-09T09:43:49.922Z,73.35
2018-10-09T09:44:59.498Z,72.81
2018-10-09T09:46:09.432Z,74.59
2018-10-09T09:47:19.835Z,74.34
2018-10-09T09:48:29.411Z,73.73
2018-10-09T09:49:39.518Z,74.05
2018-10-09T09:50:49.363Z,74.69
2018-10-09T09:51:59.402Z,75.1
2018-10-09T09:53:09.786Z,75.68
2018-10-09T09:54:19.635Z,76.35
2018-10-09T09:55:29.476Z,77.01
2018-10-09T09:56:39.587Z,77.4
2018-10-09T09:57:49.689Z,78.26
2018-10-09T09:59:00.474Z,78.26
2018-10-09T10:00:10.705Z,78.36
2018-10-09T10:01:20.278Z,78.83
2018-10-09T10:02:30.122Z,79.83
2018-10-09T10:03:39.516Z,79.93
2018-10-09T10:04:49.948Z,79.93
2018-10-09T10:06:00.066Z,79.35
2018-10-09T10:07:09.372Z,78.97
2018-10-09T10:08:19.541Z,80.11
2018-10-09T10:09:29.519Z,80.11
2018-10-09T10:10:39.362Z,80.21
2018-10-09T10:11:48.934Z,81.36
2018-10-09T10:12:58.776Z,81.36
2018-10-09T10:14:08.903Z,81.36
2018-10-09T10:15:18.747Z,81.45
2018-10-09T10:16:28.586Z,81.26
2018-10-09T10:17:38.429Z,81.88
2018-10-09T10:18:48.001Z,81.4
2018-10-09T10:19:58.118Z,81.59
2018-10-09T10:21:07.963Z,82.07
2018-10-09T10:22:18.181Z,83.31
2018-10-09T10:23:27.749Z,83.31
2018-10-09T10:24:37.862Z,84.75
2018-10-09T10:25:47.974Z,84.75
2018-10-09T10:26:57.817Z,84.17
2018-10-09T10:28:07.118Z,84.84
2018-10-09T10:29:16.967Z,84.94
2018-10-09T10:30:26.732Z,84.84
2018-10-09T10:31:36.901Z,84.69
2018-10-09T10:32:47.080Z,85.36
2018-10-09T10:33:56.656Z,85.36
2018-10-09T10:35:06.498Z,84.5
2018-10-09T10:36:16.073Z,84.69
2018-10-09T10:37:26.200Z,85.75
2018-10-09T10:38:35.768Z,85.46
2018-10-09T10:39:45.916Z,85.55
2018-10-09T10:40:55.817Z,85.36
2018-10-09T10:42:05.800Z,85.69
2018-10-09T10:43:16.270Z,86.08
2018-10-09T10:44:26.129Z,85.84
2018-10-09T10:45:35.703Z,86.17
2018-10-09T10:46:45.058Z,86.08
2018-10-09T10:47:55.227Z,86.08
2018-10-09T10:49:05.377Z,86.36
2018-10-09T10:50:15.605Z,86.65
2018-10-09T10:51:25.181Z,86.55
2018-10-09T10:52:34.536Z,86.94
2018-10-09T10:53:43.838Z,86.65
2018-10-09T10:54:54.047Z,87.51
2018-10-09T10:56:04.287Z,87.03
2018-10-09T10:57:14.126Z,86.46
2018-10-09T10:58:23.971Z,86.65
2018-10-09T10:59:33.284Z,87.32
2018-10-09T11:00:42.857Z,86.27
2018-10-09T11:01:53.042Z,87.03
2018-10-09T11:03:02.867Z,86.84
2018-10-09T11:04:12.437Z,87.51
2018-10-09T11:05:21.468Z,86.69
2018-10-09T11:06:31.041Z,87.27
2018-10-09T11:07:40.614Z,86.31
2018-10-09T11:08:49.979Z,86.79
2018-10-09T11:09:59.821Z,87.27
2018-10-09T11:11:09.672Z,87.08
2018-10-09T11:12:19.783Z,87.46
2018-10-09T11:13:29.904Z,87.55
2018-10-09T11:14:39.608Z,87.46
2018-10-09T11:15:49.324Z,87.37
2018-10-09T11:16:58.897Z,87.46
2018-10-09T11:18:08.758Z,87.08
2018-10-09T11:19:18.333Z,87.27
2018-10-09T11:20:27.642Z,87.02
2018-10-09T11:21:37.735Z,87.79
2018-10-09T11:22:48.458Z,87.6
2018-10-09T11:23:58.591Z,87.41
2018-10-09T11:25:08.433Z,87.41
2018-10-09T11:26:17.737Z,86.83
2018-10-09T11:27:27.047Z,87.41
2018-10-09T11:28:36.092Z,87.12
2018-10-09T11:29:45.940Z,87.5
2018-10-09T11:30:55.250Z,87.7
2018-10-09T11:32:04.819Z,87.6
2018-10-09T11:33:14.127Z,87.5
2018-10-09T11:34:23.971Z,87.74
2018-10-09T11:35:33.926Z,87.64
2018-10-09T11:36:44.042Z,87.84
2018-10-09T11:37:54.160Z,87.41
2018-10-09T11:39:04.282Z,88.31
2018-10-09T11:40:13.855Z,88.27
2018-10-09T11:41:23.710Z,88.12
2018-10-09T11:42:33.826Z,88.31
2018-10-09T11:43:43.523Z,88.12
2018-10-09T11:44:53.648Z,87.84
2018-10-09T11:46:03.773Z,87.93
2018-10-09T11:47:13.618Z,88.31
2018-10-09T11:48:22.926Z,87.74
2018-10-09T11:49:32.865Z,88.02
2018-10-09T11:50:42.699Z,88.22
2018-10-09T11:51:52.762Z,87.93
2018-10-09T11:53:02.874Z,87.74
2018-10-09T11:54:12.994Z,89.08
2018-10-09T11:55:22.344Z,88.79
2018-10-09T11:56:32.188Z,88.41
2018-10-09T11:57:42.085Z,87.74
2018-10-09T11:58:51.457Z,88.12
2018-10-09T12:00:01.779Z,87.59
2018-10-09T12:01:11.628Z,87.88
2018-10-09T12:02:21.746Z,87.78
2018-10-09T12:03:31.597Z,87.4
2018-10-09T12:04:41.444Z,87.78
2018-10-09T12:05:51.064Z,88.17
2018-10-09T12:07:00.954Z,87.3
2018-10-09T12:08:10.896Z,87.78
2018-10-09T12:09:21.043Z,88.84
2018-10-09T12:10:30.664Z,88.84
2018-10-09T12:11:39.966Z,89.79
2018-10-09T12:12:49.811Z,88.65
2018-10-09T12:13:59.385Z,88.74
2018-10-09T12:15:09.243Z,88.35
2018-10-09T12:16:19.357Z,88.84
2018-10-09T12:17:28.933Z,87.98
2018-10-09T12:18:38.508Z,87.68
2018-10-09T12:19:48.085Z,87.98
2018-10-09T12:20:57.723Z,87.78
2018-10-09T12:22:07.838Z,87.21
2018-10-09T12:23:17.969Z,86.87
2018-10-09T12:24:27.817Z,86.87
2018-10-09T12:25:37.390Z,87.54
2018-10-09T12:26:47.241Z,87.54
2018-10-09T12:27:57.159Z,87.15
2018-10-09T12:29:06.463Z,88.21
2018-10-09T12:30:16.327Z,87.92
2018-10-09T12:31:25.901Z,88.11
2018-10-09T12:32:35.474Z,88.49
2018-10-09T12:33:45.333Z,87.92
2018-10-09T12:34:55.181Z,88.11
2018-10-09T12:36:05.309Z,88.11
2018-10-09T12:37:15.426Z,87.25
2018-10-09T12:38:25.151Z,87.25
2018-10-09T12:39:35.388Z,86.58
2018-10-09T12:40:45.237Z,85.81
2018-10-09T12:41:54.812Z,85.33
2018-10-09T12:43:04.942Z,84.18
2018-10-09T12:44:14.403Z,85.04
2018-10-09T12:45:24.582Z,84.95
2018-10-09T12:46:33.896Z,85.62
2018-10-09T12:47:43.748Z,84.47
2018-10-09T12:48:53.326Z,84.37
2018-10-09T12:50:02.734Z,84.95
2018-10-09T12:51:12.305Z,84.95
2018-10-09T12:52:21.877Z,84.37
2018-10-09T12:53:32.042Z,84.66
2018-10-09T12:54:41.883Z,84.95
2018-10-09T12:55:51.465Z,84.47
2018-10-09T12:57:01.669Z,84.37
2018-10-09T12:58:11.856Z,84.37
2018-10-09T12:59:21.156Z,84.7
2018-10-09T13:00:31.000Z,85.81
2018-10-09T13:01:40.306Z,86.05
2018-10-09T13:02:50.164Z,86.52
2018-10-09T13:03:59.842Z,84.6
2018-10-09T13:05:09.416Z,85.18
2018-10-09T13:06:19.534Z,84.99
2018-10-09T13:07:29.701Z,85.28
2018-10-09T13:08:39.550Z,85.28
2018-10-09T13:09:48.855Z,85.95
2018-10-09T13:10:59.008Z,85.66
2018-10-09T13:12:08.860Z,86.43
2018-10-09T13:13:18.711Z,86.24
2018-10-09T13:14:28.286Z,85.95
2018-10-09T13:15:38.404Z,85.99
2018-10-09T13:16:47.767Z,84.41
2018-10-09T13:17:57.071Z,83.74
2018-10-09T13:19:06.698Z,82.78
2018-10-09T13:20:16.273Z,81.96
2018-10-09T13:21:26.668Z,82.73
2018-10-09T13:22:37.254Z,82.82
2018-10-09T13:23:46.828Z,82.15
2018-10-09T13:24:56.721Z,82.73
2018-10-09T13:26:06.570Z,82.73
2018-10-09T13:27:16.605Z,83.49
2018-10-09T13:28:26.972Z,83.11
2018-10-09T13:29:37.085Z,82.24
2018-10-09T13:30:47.366Z,83.69
2018-10-09T13:31:57.813Z,82.92
2018-10-09T13:33:07.389Z,81.48
2018-10-09T13:34:17.232Z,80.61
2018-10-09T13:35:27.160Z,81.09
2018-10-09T13:36:36.513Z,81.09
2018-10-09T13:37:46.095Z,82.15
2018-10-09T13:38:55.672Z,81.86
2018-10-09T13:40:04.976Z,79.6
2018-10-09T13:41:15.008Z,79.98
2018-10-09T13:42:25.217Z,80.55
2018-10-09T13:43:34.797Z,81.32
2018-10-09T13:44:44.378Z,80.65
2018-10-09T13:45:53.414Z,80.17
2018-10-09T13:47:03.082Z,81.32
2018-10-09T13:48:12.750Z,81.32
2018-10-09T13:49:22.325Z,80.75
2018-10-09T13:50:32.012Z,79.5
2018-10-09T13:51:41.128Z,78.83
2018-10-09T13:52:50.980Z,77.29
2018-10-09T13:54:00.821Z,78.15
2018-10-09T13:55:11.071Z,77.09
2018-10-09T13:56:21.767Z,77.86
2018-10-09T13:57:31.082Z,80.17
2018-10-09T13:58:41.202Z,78.83
2018-10-09T13:59:51.049Z,79.88
2018-10-09T14:01:00.631Z,79.6
2018-10-09T14:02:10.480Z,78.53
2018-10-09T14:03:20.329Z,77.29
2018-10-09T14:04:30.452Z,76.71
2018-10-09T14:05:40.343Z,75.56
2018-10-09T14:06:50.070Z,76.23
2018-10-09T14:08:00.279Z,76.04
2018-10-09T14:09:10.178Z,75.56
2018-10-09T14:10:20.285Z,76.32
2018-10-09T14:11:29.381Z,76.04
2018-10-09T14:12:39.507Z,76.42
2018-10-09T14:13:49.359Z,76.9
2018-10-09T14:14:59.360Z,78.44
2018-10-09T14:16:09.660Z,78.06
2018-10-09T14:17:20.085Z,78.15
2018-10-09T14:18:29.660Z,77.19
2018-10-09T14:19:39.246Z,76.42
2018-10-09T14:20:49.364Z,75.75
2018-10-09T14:21:59.216Z,75.56
2018-10-09T14:23:09.444Z,76.52
2018-10-09T14:24:19.289Z,76.23
2018-10-09T14:25:28.864Z,75.32
2018-10-09T14:26:38.709Z,75.71
2018-10-09T14:27:48.560Z,76.96
2018-10-09T14:28:57.916Z,77.63
2018-10-09T14:30:07.762Z,78.02
2018-10-09T14:31:17.072Z,78.59
2018-10-09T14:32:26.926Z,78.02
2018-10-09T14:33:36.768Z,78.3
2018-10-09T14:34:46.957Z,78.3
2018-10-09T14:35:56.689Z,78.59
2018-10-09T14:37:06.535Z,78.88
2018-10-09T14:38:15.567Z,79.17
2018-10-09T14:39:25.427Z,78.88
2018-10-09T14:40:35.564Z,78.78
2018-10-09T14:41:45.681Z,78.69
2018-10-09T14:42:55.257Z,78.59
2018-10-09T14:44:05.604Z,77.92
2018-10-09T14:45:15.893Z,78.88
2018-10-09T14:46:25.516Z,80.04
2018-10-09T14:47:35.685Z,80.22
2018-10-09T14:48:45.803Z,80.42
2018-10-09T14:49:55.116Z,80.22
2018-10-09T14:51:04.972Z,80.13
2018-10-09T14:52:14.814Z,80.8
2018-10-09T14:53:24.934Z,80.51
2018-10-09T14:54:34.788Z,80.04
2018-10-09T14:55:44.366Z,79.65
2018-10-09T14:56:54.213Z,80.71
2018-10-09T14:58:03.789Z,80.8
2018-10-09T14:59:13.903Z,80.71
2018-10-09T15:00:23.478Z,80.13
2018-10-09T15:01:32.801Z,79.84
2018-10-09T15:02:42.919Z,80.71
2018-10-09T15:03:52.780Z,81.57
2018-10-09T15:05:02.895Z,81.96